Terminal Aerodrome Forecast
Issued by NWS

Home | Current Version | Previous Version | Text Only | Print | Product List | Glossary On
Versions: 1 2 3 4 5 6 7 8 9 10 11 12 13 14 15
000
FTUS43 KTOP 062043 AAB
TAFMHK
TAF AMD
KMHK 062043Z 0621/0718 24012KT 3SM TSRA FEW010 BKN025CB
     FM062200 35012G20KT 6SM -SHRA SCT009 OVC015
     FM070400 01010G18KT 5SM BR OVC015
     FM071100 01010KT 6SM BR SCT008 BKN015=

USA.gov is the U.S. government's official web portal to all federal, state and local government web resources and services.